Time;durP1;ratioP1;P1;durP2;ratioP2;P2;SDS_P1;SDS_P2;PMS_P1;PMS_P2;Temp;Humidity;BMP_temperature;BMP_pressure;BME280_temperature;BME280_humidity;BME280_pressure;Samples;Min_cycle;Max_cycle;Signal;HPM_P1;HPM_P2
2023/06/24 00:00:07;;;;;;;13.75;12.32;;;17.40;81.10;;;;;;4996807;28;20111;-81
2023/06/24 00:02:35;;;;;;;14.48;11.50;;;17.30;81.10;;;;;;4997582;28;20088;-80
2023/06/24 00:05:03;;;;;;;11.70;10.52;;;17.30;81.20;;;;;;5021760;28;20492;-81
2023/06/24 00:07:29;;;;;;;12.15;10.55;;;17.30;81.50;;;;;;5037882;28;20068;-81
2023/06/24 00:09:55;;;;;;;13.05;10.77;;;17.30;81.60;;;;;;5021387;28;20193;-81
2023/06/24 00:12:21;;;;;;;11.63;10.52;;;17.20;81.70;;;;;;5038997;28;20394;-80
2023/06/24 00:14:47;;;;;;;12.70;10.90;;;17.10;82.00;;;;;;5024434;28;20041;-80
2023/06/24 00:17:13;;;;;;;11.77;10.57;;;17.00;82.20;;;;;;5037565;28;20481;-81
2023/06/24 00:19:39;;;;;;;12.27;10.63;;;17.00;82.50;;;;;;5021100;28;20141;-81
2023/06/24 00:22:06;;;;;;;12.82;11.27;;;17.00;82.50;;;;;;5017323;28;20045;-80
2023/06/24 00:24:32;;;;;;;14.48;11.02;;;16.90;82.70;;;;;;5000528;28;20042;-81
2023/06/24 00:26:58;;;;;;;12.55;11.27;;;16.90;82.80;;;;;;5017225;28;20045;-81
2023/06/24 00:29:23;;;;;;;14.18;11.43;;;16.90;82.90;;;;;;4999788;28;20040;-80
2023/06/24 00:31:49;;;;;;;14.55;11.23;;;16.90;83.30;;;;;;4998723;28;20046;-80
2023/06/24 00:34:15;;;;;;;12.45;10.70;;;16.80;83.20;;;;;;4999275;28;20042;-81
2023/06/24 00:36:43;;;;;;;11.95;10.73;;;16.80;83.20;;;;;;4999513;28;20077;-82
2023/06/24 00:39:09;;;;;;;11.85;10.68;;;16.80;83.20;;;;;;5028129;28;20216;-81
2023/06/24 00:41:36;;;;;;;12.25;10.85;;;16.70;83.20;;;;;;5035275;28;20136;-81
2023/06/24 00:44:02;;;;;;;12.57;10.48;;;16.70;83.30;;;;;;5019740;28;20042;-82
2023/06/24 00:46:28;;;;;;;12.23;10.63;;;16.70;83.40;;;;;;5033264;28;20103;-82
2023/06/24 00:48:56;;;;;;;14.95;11.20;;;16.70;83.40;;;;;;5019591;28;20046;-80
2023/06/24 00:51:26;;;;;;;13.48;12.05;;;16.60;83.60;;;;;;5036184;28;20045;-81
2023/06/24 00:53:53;;;;;;;12.55;11.25;;;16.60;83.70;;;;;;5019663;28;20116;-82
2023/06/24 00:56:21;;;;;;;11.73;9.98;;;16.50;83.80;;;;;;5019560;28;20049;-81
2023/06/24 00:58:48;;;;;;;12.73;10.68;;;16.50;83.70;;;;;;5035823;28;20120;-81
2023/06/24 01:01:16;;;;;;;11.35;9.68;;;16.40;84.00;;;;;;5036399;28;20046;-81
2023/06/24 01:03:41;;;;;;;10.70;9.55;;;16.40;84.10;;;;;;5034511;28;20489;-81
2023/06/24 01:06:09;;;;;;;13.07;11.23;;;16.40;84.10;;;;;;5019807;28;20045;-82
2023/06/24 01:08:34;;;;;;;14.38;11.15;;;16.40;84.40;;;;;;5036024;28;20049;-82
2023/06/24 01:11:00;;;;;;;13.07;11.20;;;16.40;84.40;;;;;;5003487;28;20037;-82
2023/06/24 01:13:26;;;;;;;13.85;11.93;;;16.40;84.60;;;;;;5019806;28;20095;-83
2023/06/24 01:15:52;;;;;;;13.18;11.05;;;16.40;84.50;;;;;;5019784;28;20134;-82
2023/06/24 01:18:29;;;;;;;12.50;11.23;;;16.40;84.30;;;;;;5019177;28;20469;-80
2023/06/24 01:20:56;;;;;;;14.18;11.25;;;16.40;84.30;;;;;;5019209;28;20041;-80
2023/06/24 01:23:25;;;;;;;12.88;11.30;;;16.30;84.20;;;;;;5019537;28;20037;-81
2023/06/24 01:26:14;;;;;;;14.60;11.77;;;16.20;84.30;;;;;;5022104;28;20037;-81
2023/06/24 01:29:03;;;;;;;13.75;11.73;;;16.20;84.20;;;;;;5019174;28;20099;-79
2023/06/24 01:31:38;;;;;;;14.25;12.55;;;16.20;84.40;;;;;;5026194;28;20246;-80
2023/06/24 01:34:18;;;;;;;14.23;11.90;;;16.20;84.40;;;;;;5035984;28;20139;-80
2023/06/24 01:36:55;;;;;;;14.63;12.75;;;16.20;84.30;;;;;;5018080;28;20128;-81
2023/06/24 01:39:25;;;;;;;12.65;11.35;;;16.20;84.50;;;;;;5019112;28;20042;-81
2023/06/24 01:41:58;;;;;;;16.33;11.35;;;16.20;84.80;;;;;;5019041;28;20044;-81
2023/06/24 01:44:27;;;;;;;15.48;11.27;;;16.30;85.20;;;;;;5035313;28;20049;-80
2023/06/24 01:46:57;;;;;;;12.07;10.85;;;16.20;84.90;;;;;;5035162;28;20045;-81
2023/06/24 01:49:27;;;;;;;12.32;10.82;;;16.30;84.60;;;;;;5018202;28;20041;-81
2023/06/24 01:51:55;;;;;;;14.63;11.73;;;16.30;84.50;;;;;;5024017;28;20034;-82
2023/06/24 01:54:23;;;;;;;13.38;12.00;;;16.30;84.30;;;;;;5015334;28;20098;-80
2023/06/24 01:56:52;;;;;;;13.77;11.35;;;16.30;84.30;;;;;;4999151;28;20049;-82
2023/06/24 01:59:20;;;;;;;12.30;10.45;;;16.30;84.20;;;;;;4999451;28;20041;-80
2023/06/24 02:01:46;;;;;;;14.65;12.18;;;16.30;83.70;;;;;;5015188;28;20552;-81
2023/06/24 02:04:12;;;;;;;13.27;10.77;;;16.30;83.70;;;;;;4999180;28;20137;-81
2023/06/24 02:06:41;;;;;;;15.50;13.43;;;16.20;83.70;;;;;;5015500;28;20050;-81
2023/06/24 02:09:07;;;;;;;15.60;12.45;;;16.20;83.80;;;;;;5023615;28;20075;-81
2023/06/24 02:11:35;;;;;;;14.75;12.98;;;16.20;83.80;;;;;;5034562;28;20503;-81
2023/06/24 02:14:03;;;;;;;15.07;13.38;;;16.10;83.70;;;;;;5002227;28;20033;-81
2023/06/24 02:16:29;;;;;;;14.13;12.68;;;16.00;84.10;;;;;;5018393;28;20072;-81
2023/06/24 02:18:56;;;;;;;15.00;12.63;;;16.00;83.90;;;;;;5035155;28;20148;-81
2023/06/24 02:21:24;;;;;;;16.45;12.85;;;16.00;83.80;;;;;;5018307;28;20370;-81
2023/06/24 02:23:51;;;;;;;17.55;13.85;;;16.00;83.80;;;;;;5018686;28;20045;-81
2023/06/24 02:26:18;;;;;;;17.08;12.75;;;16.00;84.60;;;;;;5016339;28;20044;-81
2023/06/24 02:28:48;;;;;;;17.45;12.82;;;15.90;84.70;;;;;;5018035;28;20080;-81
2023/06/24 02:31:15;;;;;;;15.63;12.35;;;15.90;84.10;;;;;;5002268;28;20048;-81
2023/06/24 02:33:41;;;;;;;16.30;12.32;;;15.90;84.40;;;;;;5001691;28;20038;-81
2023/06/24 02:36:08;;;;;;;17.60;13.75;;;15.90;84.10;;;;;;5034133;28;20037;-80
2023/06/24 02:38:34;;;;;;;15.00;12.52;;;15.90;84.00;;;;;;5017705;28;20091;-81
2023/06/24 02:41:02;;;;;;;18.95;14.07;;;15.90;84.10;;;;;;5033964;28;20046;-81
2023/06/24 02:43:28;;;;;;;17.05;13.70;;;15.90;84.10;;;;;;5016055;28;20044;-80
2023/06/24 02:45:54;;;;;;;15.38;13.68;;;15.90;83.90;;;;;;5017052;28;20038;-81
2023/06/24 02:48:21;;;;;;;18.30;14.60;;;15.90;84.20;;;;;;5017035;28;20132;-80
2023/06/24 02:50:47;;;;;;;15.07;13.48;;;15.80;84.40;;;;;;5033117;28;20052;-80
2023/06/24 02:53:14;;;;;;;15.48;13.45;;;15.80;84.30;;;;;;5033605;28;20040;-81
2023/06/24 02:55:42;;;;;;;17.17;13.82;;;15.80;84.30;;;;;;5017111;28;20029;-81
2023/06/24 02:58:08;;;;;;;16.92;14.27;;;15.80;84.30;;;;;;5027154;28;20065;-80
2023/06/24 03:00:35;;;;;;;15.70;13.13;;;15.70;84.40;;;;;;4997122;28;20045;-82
2023/06/24 03:03:03;;;;;;;15.25;12.38;;;15.60;84.70;;;;;;4996861;28;20053;-81
2023/06/24 03:05:31;;;;;;;17.77;14.13;;;15.70;84.40;;;;;;5013192;28;20393;-81
2023/06/24 03:07:57;;;;;;;15.13;13.50;;;15.70;84.70;;;;;;5012837;28;20056;-81
2023/06/24 03:10:24;;;;;;;19.02;14.00;;;15.60;84.70;;;;;;4996000;28;20304;-81
2023/06/24 03:12:51;;;;;;;16.80;14.25;;;15.60;84.60;;;;;;4996512;28;20057;-81
2023/06/24 03:15:17;;;;;;;17.08;13.73;;;15.60;84.80;;;;;;4987488;28;20374;-80
2023/06/24 03:17:43;;;;;;;16.83;13.27;;;15.60;84.60;;;;;;4997090;28;20045;-80
2023/06/24 03:20:09;;;;;;;12.15;10.32;;;15.60;84.60;;;;;;5013294;28;20042;-81
2023/06/24 03:22:35;;;;;;;16.63;13.93;;;15.60;84.60;;;;;;4997014;28;20042;-80
2023/06/24 03:25:01;;;;;;;17.55;13.27;;;15.60;84.80;;;;;;5013181;28;20044;-81
2023/06/24 03:27:26;;;;;;;14.82;13.30;;;15.50;85.40;;;;;;4996938;28;20475;-81
2023/06/24 03:29:52;;;;;;;17.58;13.77;;;15.50;85.60;;;;;;4980668;28;20111;-80
2023/06/24 03:32:18;;;;;;;17.50;14.32;;;15.40;85.80;;;;;;5001194;28;20044;-81
2023/06/24 03:34:43;;;;;;;16.83;13.30;;;15.40;85.80;;;;;;4996825;28;20080;-81
2023/06/24 03:37:09;;;;;;;15.60;12.50;;;15.40;85.60;;;;;;4996987;28;20088;-80
2023/06/24 03:39:35;;;;;;;15.85;14.10;;;15.50;85.30;;;;;;5013520;28;20045;-82
2023/06/24 03:42:00;;;;;;;15.32;13.57;;;15.50;85.30;;;;;;5013068;28;20524;-81
2023/06/24 03:44:26;;;;;;;18.20;13.98;;;15.50;85.40;;;;;;5012996;28;20183;-82
2023/06/24 03:46:52;;;;;;;18.58;13.45;;;15.50;85.30;;;;;;4997120;28;20241;-81
2023/06/24 03:49:18;;;;;;;14.85;11.30;;;15.50;85.20;;;;;;4995855;28;20100;-81
2023/06/24 03:51:44;;;;;;;21.27;13.82;;;15.50;85.30;;;;;;4997078;28;20390;-81
2023/06/24 03:54:10;;;;;;;18.77;14.20;;;15.50;85.30;;;;;;4996993;28;20041;-81
2023/06/24 03:56:35;;;;;;;15.80;13.45;;;15.50;85.50;;;;;;5012949;28;20393;-81
2023/06/24 03:59:01;;;;;;;15.85;13.57;;;15.50;85.30;;;;;;4996573;28;20041;-80
2023/06/24 04:01:27;;;;;;;14.82;11.48;;;15.60;85.20;;;;;;4996913;28;20073;-81
2023/06/24 04:03:52;;;;;;;14.88;12.52;;;15.50;85.70;;;;;;4979925;28;20061;-81
2023/06/24 04:06:18;;;;;;;15.85;14.02;;;15.60;85.40;;;;;;5032874;28;20095;-81
2023/06/24 04:08:44;;;;;;;14.40;11.82;;;15.60;85.30;;;;;;5016071;28;20051;-80
2023/06/24 04:11:10;;;;;;;16.83;14.05;;;15.60;85.10;;;;;;5032638;28;20064;-80
2023/06/24 04:13:35;;;;;;;18.50;13.85;;;15.60;85.50;;;;;;5016624;28;20045;-81
2023/06/24 04:16:01;;;;;;;18.70;14.13;;;15.60;86.00;;;;;;5016652;28;20038;-81
2023/06/24 04:18:27;;;;;;;16.10;12.25;;;15.60;85.90;;;;;;5032963;28;20038;-81
2023/06/24 04:20:53;;;;;;;14.90;11.18;;;15.60;85.70;;;;;;5032701;28;20038;-81
2023/06/24 04:23:19;;;;;;;15.52;12.07;;;15.60;85.40;;;;;;4995798;28;20150;-81
2023/06/24 04:25:45;;;;;;;16.02;13.40;;;15.70;85.20;;;;;;5012617;28;20038;-81
2023/06/24 04:28:10;;;;;;;17.25;13.80;;;15.70;85.10;;;;;;4980424;28;20041;-81
2023/06/24 04:30:38;;;;;;;16.80;13.50;;;15.80;85.50;;;;;;5012460;28;20119;-81
2023/06/24 04:33:04;;;;;;;19.35;14.43;;;15.80;84.90;;;;;;4996276;28;20505;-80
2023/06/24 04:35:30;;;;;;;17.55;13.90;;;15.90;85.50;;;;;;5013105;28;20042;-81
2023/06/24 04:37:56;;;;;;;17.92;13.77;;;15.90;85.00;;;;;;4996553;28;20138;-81
2023/06/24 04:40:22;;;;;;;19.83;13.88;;;15.90;85.50;;;;;;5030841;28;20077;-80
2023/06/24 04:42:48;;;;;;;15.80;11.82;;;16.00;85.30;;;;;;5015864;28;20041;-80
2023/06/24 04:45:14;;;;;;;16.17;14.05;;;16.00;85.10;;;;;;5020055;28;20042;-85
2023/06/24 04:47:40;;;;;;;17.80;14.30;;;16.10;85.10;;;;;;4996238;28;20045;-84
2023/06/24 04:50:09;;;;;;;16.63;13.35;;;16.10;85.40;;;;;;4998337;28;20038;-83
2023/06/24 04:52:35;;;;;;;18.73;14.48;;;16.20;85.20;;;;;;5000031;28;20486;-82
2023/06/24 04:55:01;;;;;;;14.73;11.77;;;16.20;85.70;;;;;;5016047;28;20053;-83
2023/06/24 04:57:28;;;;;;;19.33;14.68;;;16.30;85.50;;;;;;4999452;28;20045;-84
2023/06/24 04:59:54;;;;;;;16.80;14.43;;;16.40;85.90;;;;;;5012830;28;20124;-83
2023/06/24 05:02:20;;;;;;;18.90;15.43;;;16.40;86.30;;;;;;4999918;28;20044;-84
2023/06/24 05:04:46;;;;;;;17.02;13.75;;;16.40;86.60;;;;;;5019384;28;20524;-84
2023/06/24 05:07:12;;;;;;;21.58;15.38;;;16.40;86.70;;;;;;4998930;28;20084;-83
2023/06/24 05:09:38;;;;;;;18.27;15.05;;;16.50;86.40;;;;;;5032157;28;20046;-84
2023/06/24 05:12:04;;;;;;;20.55;15.82;;;16.50;86.00;;;;;;5032189;28;20041;-83
2023/06/24 05:14:30;;;;;;;16.00;14.02;;;16.60;86.90;;;;;;4998555;28;20498;-82
2023/06/24 05:16:56;;;;;;;17.85;15.48;;;16.70;86.40;;;;;;5015891;28;20088;-83
2023/06/24 05:19:22;;;;;;;18.77;15.38;;;16.80;86.40;;;;;;5015981;28;20050;-84
2023/06/24 05:21:47;;;;;;;17.88;14.93;;;16.90;86.90;;;;;;5032349;28;20474;-84
2023/06/24 05:24:13;;;;;;;20.30;14.27;;;16.90;87.00;;;;;;4999171;28;20132;-83
2023/06/24 05:26:39;;;;;;;19.48;15.70;;;17.10;87.50;;;;;;5015736;28;20048;-83
2023/06/24 05:29:05;;;;;;;18.75;15.93;;;17.20;86.90;;;;;;5016512;28;20084;-82
2023/06/24 05:31:30;;;;;;;21.95;15.88;;;17.30;87.60;;;;;;5034210;28;20038;-82
2023/06/24 05:33:56;;;;;;;16.23;14.50;;;17.50;87.40;;;;;;5018942;28;20091;-84
2023/06/24 05:36:22;;;;;;;19.77;15.32;;;17.60;87.30;;;;;;5018812;28;20042;-84
2023/06/24 05:38:48;;;;;;;17.48;13.63;;;17.70;87.20;;;;;;5002435;28;20049;-83
2023/06/24 05:41:14;;;;;;;17.33;14.55;;;17.90;86.50;;;;;;5002795;28;20041;-83
2023/06/24 05:43:43;;;;;;;19.13;15.30;;;18.00;86.40;;;;;;5018930;28;20068;-83
2023/06/24 05:46:09;;;;;;;20.77;14.38;;;18.20;86.40;;;;;;5018092;28;20049;-82
2023/06/24 05:48:35;;;;;;;20.13;14.85;;;18.40;86.20;;;;;;5035492;28;20041;-82
2023/06/24 05:51:00;;;;;;;19.33;14.63;;;18.50;85.70;;;;;;5035536;28;20037;-82
2023/06/24 05:53:26;;;;;;;17.05;14.18;;;18.70;85.80;;;;;;5002868;28;20041;-83
2023/06/24 05:55:52;;;;;;;18.52;14.32;;;18.90;86.00;;;;;;5035167;28;20041;-82
2023/06/24 05:58:17;;;;;;;17.35;15.15;;;19.00;85.60;;;;;;5002779;28;20040;-83
2023/06/24 06:00:43;;;;;;;15.38;13.43;;;19.10;85.00;;;;;;5033210;28;20037;-83
2023/06/24 06:03:09;;;;;;;16.80;13.63;;;19.30;84.60;;;;;;5034818;28;20540;-83
2023/06/24 06:05:35;;;;;;;15.43;13.80;;;19.40;84.30;;;;;;5034564;28;20053;-84
2023/06/24 06:08:00;;;;;;;17.17;14.00;;;19.50;84.10;;;;;;5034713;28;20045;-83
2023/06/24 06:10:26;;;;;;;21.30;14.98;;;19.60;84.00;;;;;;5001433;28;20482;-83
2023/06/24 06:12:53;;;;;;;19.25;14.35;;;19.60;83.90;;;;;;5017719;28;20038;-83
2023/06/24 06:15:19;;;;;;;17.13;14.75;;;19.60;83.90;;;;;;5018025;28;20127;-83
2023/06/24 06:17:46;;;;;;;20.98;14.73;;;19.70;83.80;;;;;;5017854;28;20029;-83
2023/06/24 06:20:12;;;;;;;17.80;14.07;;;19.80;83.60;;;;;;5032743;28;20045;-84
2023/06/24 06:22:38;;;;;;;19.13;15.65;;;19.80;83.80;;;;;;5033904;28;20375;-83
2023/06/24 06:25:05;;;;;;;16.67;14.18;;;19.90;83.80;;;;;;5034211;28;20045;-85
2023/06/24 06:27:31;;;;;;;17.48;14.18;;;19.90;83.70;;;;;;5001216;28;20055;-85
2023/06/24 06:29:57;;;;;;;17.95;13.60;;;20.00;83.70;;;;;;5000549;28;20046;-84
2023/06/24 06:32:22;;;;;;;15.32;12.90;;;20.10;83.60;;;;;;5034057;28;20044;-84
2023/06/24 06:34:50;;;;;;;19.92;13.02;;;20.10;83.40;;;;;;5013919;28;20049;-84
2023/06/24 06:37:15;;;;;;;18.05;13.27;;;20.20;83.10;;;;;;5047308;28;20525;-85
2023/06/24 06:39:41;;;;;;;14.35;12.80;;;20.20;82.60;;;;;;5014521;28;20045;-84
2023/06/24 06:42:07;;;;;;;15.38;13.43;;;20.40;82.60;;;;;;5014050;28;20293;-84
2023/06/24 06:44:33;;;;;;;18.05;12.77;;;20.40;82.50;;;;;;4997740;28;20077;-84
2023/06/24 06:46:58;;;;;;;16.13;12.80;;;20.50;82.40;;;;;;5030658;28;20042;-85
2023/06/24 06:49:24;;;;;;;16.52;12.52;;;20.50;82.30;;;;;;5013640;28;20045;-84
2023/06/24 06:51:51;;;;;;;14.55;10.65;;;20.60;81.80;;;;;;4997242;28;20490;-84
2023/06/24 06:54:17;;;;;;;16.80;12.70;;;20.70;81.70;;;;;;5013554;28;20048;-85
2023/06/24 06:56:43;;;;;;;15.18;12.05;;;20.70;81.10;;;;;;5000734;28;20041;-84
2023/06/24 06:59:08;;;;;;;16.05;11.48;;;20.80;81.00;;;;;;5017049;28;20200;-84
2023/06/24 07:01:34;;;;;;;13.38;11.95;;;20.80;81.00;;;;;;5017677;28;20041;-84
2023/06/24 07:04:00;;;;;;;13.82;12.30;;;20.90;80.80;;;;;;5017319;28;20057;-84
2023/06/24 07:06:26;;;;;;;14.30;11.77;;;20.90;80.00;;;;;;5018156;28;20445;-84
2023/06/24 07:08:52;;;;;;;14.27;11.25;;;21.00;79.60;;;;;;4997915;28;20041;-84
2023/06/24 07:11:18;;;;;;;14.68;10.52;;;21.10;80.10;;;;;;4984402;28;20045;-84
2023/06/24 07:13:45;;;;;;;12.73;10.88;;;21.10;79.80;;;;;;5017504;28;20037;-83
2023/06/24 07:16:11;;;;;;;14.43;11.07;;;21.20;79.40;;;;;;5017255;28;20045;-85
2023/06/24 07:18:37;;;;;;;13.85;11.55;;;21.30;79.70;;;;;;5001317;28;20482;-84
2023/06/24 07:21:03;;;;;;;15.43;11.40;;;21.30;79.50;;;;;;5002058;28;20128;-84
2023/06/24 07:23:29;;;;;;;13.63;11.50;;;21.40;79.60;;;;;;5034169;28;20045;-84
2023/06/24 07:25:54;;;;;;;13.88;11.48;;;21.40;80.00;;;;;;5016717;28;20033;-85
2023/06/24 07:28:20;;;;;;;13.18;11.65;;;21.40;80.00;;;;;;5001499;28;20071;-84
2023/06/24 07:30:46;;;;;;;15.02;11.70;;;21.40;79.90;;;;;;5016515;28;20048;-84
2023/06/24 07:33:11;;;;;;;13.75;12.25;;;21.40;80.10;;;;;;5016794;28;20120;-83
2023/06/24 07:35:40;;;;;;;14.57;13.05;;;21.40;80.40;;;;;;5034458;28;20125;-85
2023/06/24 07:38:06;;;;;;;14.18;12.30;;;21.50;80.50;;;;;;5000521;28;20076;-85
2023/06/24 07:40:31;;;;;;;15.43;12.82;;;21.50;80.60;;;;;;5017042;28;20490;-84
2023/06/24 07:42:57;;;;;;;14.70;11.75;;;21.60;80.50;;;;;;4996240;28;20042;-85
2023/06/24 07:45:23;;;;;;;12.88;11.52;;;21.70;80.60;;;;;;5013377;28;20636;-85
2023/06/24 07:47:49;;;;;;;14.35;12.35;;;21.70;80.50;;;;;;5013189;28;20229;-82
2023/06/24 07:50:15;;;;;;;14.63;11.23;;;21.90;80.50;;;;;;5012927;28;20134;-83
2023/06/24 07:52:40;;;;;;;14.88;10.93;;;21.90;80.70;;;;;;5013182;28;20177;-84
2023/06/24 07:55:06;;;;;;;11.73;9.80;;;22.00;80.20;;;;;;4996530;28;20041;-84
2023/06/24 07:57:32;;;;;;;13.15;10.57;;;22.10;79.90;;;;;;4980539;28;20038;-83
2023/06/24 07:59:58;;;;;;;11.77;9.68;;;22.20;79.20;;;;;;5026496;28;20060;-82
2023/06/24 08:02:24;;;;;;;12.20;9.20;;;22.40;79.30;;;;;;5033174;28;20429;-82
2023/06/24 08:04:50;;;;;;;11.57;9.00;;;22.40;79.00;;;;;;5032765;28;20064;-85
2023/06/24 08:07:16;;;;;;;10.48;8.55;;;22.50;76.90;;;;;;5016142;28;20047;-86
2023/06/24 08:09:42;;;;;;;9.75;7.97;;;22.70;77.30;;;;;;5000107;28;20124;-85
2023/06/24 08:12:08;;;;;;;10.65;8.13;;;22.80;77.40;;;;;;4999335;28;20468;-85
2023/06/24 08:14:35;;;;;;;10.48;8.32;;;22.80;74.60;;;;;;4999579;28;20034;-85
2023/06/24 08:17:00;;;;;;;12.25;8.23;;;22.80;75.40;;;;;;5006505;28;20042;-85
2023/06/24 08:19:26;;;;;;;9.93;7.30;;;22.90;74.80;;;;;;5012601;28;20046;-85
2023/06/24 08:21:52;;;;;;;10.68;7.93;;;22.90;74.90;;;;;;5000024;28;20049;-85
2023/06/24 08:24:18;;;;;;;12.70;7.93;;;23.00;73.90;;;;;;5033429;28;20044;-85
2023/06/24 08:26:44;;;;;;;10.10;8.23;;;23.10;73.90;;;;;;4987151;28;20451;-83
2023/06/24 08:29:09;;;;;;;14.10;8.50;;;23.20;74.00;;;;;;5036236;28;20041;-85
2023/06/24 08:31:35;;;;;;;11.00;8.63;;;23.30;73.90;;;;;;5036580;28;20037;-85
2023/06/24 08:34:02;;;;;;;10.20;7.50;;;23.30;72.70;;;;;;5002690;28;20037;-84
2023/06/24 08:36:29;;;;;;;12.45;8.80;;;23.40;73.00;;;;;;5070176;28;20647;-84
2023/06/24 08:38:55;;;;;;;10.02;7.90;;;23.40;72.10;;;;;;5020825;28;20136;-84
2023/06/24 08:41:22;;;;;;;9.63;7.50;;;23.50;71.70;;;;;;5021592;28;20072;-84
2023/06/24 08:43:47;;;;;;;10.57;6.85;;;23.70;71.90;;;;;;5019674;28;20568;-84
2023/06/24 08:46:17;;;;;;;10.15;7.68;;;23.90;69.70;;;;;;5035666;28;20053;-84
2023/06/24 08:48:45;;;;;;;10.70;7.05;;;24.00;69.20;;;;;;5019179;28;20490;-84
2023/06/24 08:51:15;;;;;;;11.07;7.32;;;24.10;67.60;;;;;;5018210;28;20068;-84
2023/06/24 08:53:43;;;;;;;9.73;7.20;;;24.10;65.80;;;;;;5019344;28;20041;-83
2023/06/24 08:56:10;;;;;;;10.40;7.95;;;24.10;65.70;;;;;;5068564;28;20132;-84
2023/06/24 08:58:35;;;;;;;10.65;7.15;;;24.30;66.00;;;;;;5067348;28;20485;-84
2023/06/24 09:01:02;;;;;;;9.43;6.85;;;24.40;65.50;;;;;;5050859;28;20041;-81
2023/06/24 09:03:28;;;;;;;10.80;7.43;;;24.50;64.30;;;;;;5018503;28;20379;-81
2023/06/24 09:05:54;;;;;;;8.82;6.57;;;24.70;64.70;;;;;;5035029;28;20065;-82
2023/06/24 09:08:21;;;;;;;9.57;6.20;;;24.90;63.30;;;;;;5002287;28;20049;-81
2023/06/24 09:10:56;;;;;;;9.60;6.55;;;25.00;62.10;;;;;;5068173;28;20494;-81
2023/06/24 09:13:34;;;;;;;11.43;6.72;;;25.20;61.50;;;;;;5069376;28;20540;-80
2023/06/24 09:16:14;;;;;;;8.23;6.60;;;25.40;61.30;;;;;;5026719;28;20060;-80
2023/06/24 09:18:40;;;;;;;10.70;7.07;;;25.60;60.30;;;;;;5032300;28;20038;-80
2023/06/24 09:21:07;;;;;;;9.73;7.03;;;25.70;60.40;;;;;;5032228;28;20049;-79
2023/06/24 09:23:39;;;;;;;8.55;6.80;;;25.70;58.30;;;;;;5015280;28;20037;-80
2023/06/24 09:26:09;;;;;;;9.55;6.80;;;25.80;58.30;;;;;;5048732;28;20441;-80
2023/06/24 09:28:35;;;;;;;11.02;6.75;;;25.80;58.40;;;;;;5015151;28;20117;-80
2023/06/24 09:31:10;;;;;;;9.38;6.30;;;25.90;59.00;;;;;;5048150;28;20129;-79
2023/06/24 09:33:36;;;;;;;10.18;6.07;;;26.00;57.30;;;;;;5060307;28;20088;-79
2023/06/24 09:36:05;;;;;;;7.93;6.55;;;26.10;57.00;;;;;;5034970;28;20436;-79
2023/06/24 09:38:38;;;;;;;8.05;6.38;;;26.00;54.80;;;;;;5035050;28;20033;-79
2023/06/24 09:41:06;;;;;;;7.13;5.57;;;26.10;55.50;;;;;;5068573;28;20081;-80
2023/06/24 09:43:36;;;;;;;9.70;6.15;;;26.20;56.40;;;;;;5035336;28;20045;-80
2023/06/24 09:46:03;;;;;;;8.48;6.53;;;26.30;56.40;;;;;;5018242;28;20124;-79
2023/06/24 09:48:29;;;;;;;9.98;7.03;;;26.20;56.90;;;;;;5017535;28;20234;-80
2023/06/24 09:50:59;;;;;;;7.50;6.47;;;26.30;57.50;;;;;;5034140;28;20092;-80
2023/06/24 09:53:25;;;;;;;11.65;6.40;;;26.40;57.70;;;;;;5034582;28;20045;-80
2023/06/24 09:55:53;;;;;;;9.38;6.10;;;26.40;56.30;;;;;;5067851;28;20033;-81
2023/06/24 09:58:20;;;;;;;7.50;6.25;;;26.50;56.70;;;;;;5001963;28;20245;-80
2023/06/24 10:00:46;;;;;;;8.43;6.03;;;26.60;55.90;;;;;;5068126;28;20080;-80
2023/06/24 10:03:12;;;;;;;8.98;6.45;;;26.60;56.20;;;;;;5018165;28;20110;-81
2023/06/24 10:05:38;;;;;;;10.02;6.95;;;26.70;56.40;;;;;;5067159;28;20128;-80
2023/06/24 10:08:05;;;;;;;11.10;6.97;;;26.70;56.50;;;;;;5034511;28;20037;-80
2023/06/24 10:10:31;;;;;;;9.93;7.32;;;26.70;56.30;;;;;;5017857;28;20084;-80
2023/06/24 10:12:57;;;;;;;10.45;7.43;;;26.90;56.90;;;;;;5017843;28;20041;-80
2023/06/24 10:15:23;;;;;;;9.93;7.50;;;26.90;58.00;;;;;;5001984;28;20037;-81
2023/06/24 10:17:51;;;;;;;8.75;7.18;;;26.90;57.50;;;;;;5034759;28;20041;-81
2023/06/24 10:20:26;;;;;;;8.25;6.68;;;27.10;57.30;;;;;;5067703;28;20038;-82
2023/06/24 10:22:52;;;;;;;10.98;6.60;;;27.20;56.70;;;;;;4997564;28;20037;-80
2023/06/24 10:25:18;;;;;;;10.88;7.30;;;27.20;56.40;;;;;;4998024;28;20076;-81
2023/06/24 10:27:44;;;;;;;8.32;6.05;;;27.10;56.50;;;;;;4998274;28;20141;-79
2023/06/24 10:30:22;;;;;;;7.28;5.47;;;27.10;56.00;;;;;;5013834;28;20066;-79
2023/06/24 10:32:55;;;;;;;7.28;6.38;;;26.90;55.00;;;;;;5030605;28;20041;-79
2023/06/24 10:35:25;;;;;;;8.15;6.90;;;27.00;54.90;;;;;;5030884;28;20478;-79
2023/06/24 10:38:00;;;;;;;11.13;5.95;;;27.00;54.90;;;;;;5017174;28;20111;-78
2023/06/24 10:40:44;;;;;;;6.38;5.57;;;27.00;53.90;;;;;;5033725;28;20493;-79
2023/06/24 10:43:27;;;;;;;8.65;5.35;;;27.10;53.50;;;;;;5017278;28;20045;-78
2023/06/24 10:45:56;;;;;;;8.05;5.82;;;27.20;52.60;;;;;;5017203;28;20549;-79
2023/06/24 10:48:22;;;;;;;7.72;5.55;;;27.20;53.20;;;;;;5065889;28;20041;-79
2023/06/24 10:50:49;;;;;;;10.60;6.70;;;27.30;53.00;;;;;;5016514;28;20129;-79
2023/06/24 10:53:18;;;;;;;8.05;6.72;;;27.40;53.10;;;;;;5033090;28;20509;-79
2023/06/24 10:55:45;;;;;;;7.82;6.32;;;27.40;53.30;;;;;;4998230;28;20088;-80
2023/06/24 10:58:14;;;;;;;6.78;5.72;;;27.60;53.00;;;;;;5013330;28;20522;-79
2023/06/24 11:00:40;;;;;;;7.78;6.70;;;27.80;52.80;;;;;;5013381;28;20045;-78
2023/06/24 11:03:14;;;;;;;9.23;5.82;;;27.70;52.80;;;;;;4996939;28;20057;-79
2023/06/24 11:05:42;;;;;;;7.70;5.85;;;27.60;52.60;;;;;;5012284;28;20084;-79
2023/06/24 11:08:11;;;;;;;10.45;7.35;;;27.60;51.10;;;;;;5011993;28;20045;-79
2023/06/24 11:10:47;;;;;;;7.38;6.43;;;27.10;53.30;;;;;;4995665;28;20529;-78
2023/06/24 11:13:13;;;;;;;6.25;4.20;;;27.40;54.40;;;;;;5011901;28;20080;-79
2023/06/24 11:15:40;;;;;;;8.30;5.30;;;27.40;52.00;;;;;;5012626;28;20038;-79
2023/06/24 11:18:09;;;;;;;5.50;4.72;;;27.50;52.50;;;;;;5012317;28;20037;-79
2023/06/24 11:20:37;;;;;;;5.40;3.72;;;27.40;53.10;;;;;;5045464;28;20081;-79
2023/06/24 11:23:07;;;;;;;7.65;4.75;;;27.20;52.30;;;;;;5012107;28;20493;-78
2023/06/24 11:25:41;;;;;;;7.38;4.28;;;27.20;52.70;;;;;;5012804;28;20041;-80
2023/06/24 11:28:34;;;;;;;5.78;3.40;;;27.50;53.00;;;;;;5012986;28;20433;-78
2023/06/24 11:31:10;;;;;;;4.22;3.13;;;27.80;52.30;;;;;;4994603;28;20409;-81
2023/06/24 11:33:35;;;;;;;3.90;3.50;;;27.90;51.50;;;;;;5011275;28;20052;-80
2023/06/24 11:36:01;;;;;;;7.03;3.45;;;28.10;50.90;;;;;;4995148;28;20542;-81
2023/06/24 11:38:31;;;;;;;4.45;4.00;;;28.20;50.80;;;;;;4995676;28;20375;-81
2023/06/24 11:40:58;;;;;;;6.70;3.78;;;28.20;51.10;;;;;;4995368;28;20042;-81
2023/06/24 11:43:26;;;;;;;5.10;3.50;;;28.40;50.80;;;;;;5011147;28;20038;-81
2023/06/24 11:45:51;;;;;;;5.80;3.20;;;28.50;49.70;;;;;;5043442;28;20053;-80
2023/06/24 11:48:19;;;;;;;6.03;3.30;;;28.60;49.80;;;;;;5012107;28;20049;-79
2023/06/24 11:51:00;;;;;;;6.68;4.57;;;28.70;49.40;;;;;;4995319;28;20045;-80
2023/06/24 11:53:45;;;;;;;5.00;3.80;;;28.80;49.20;;;;;;5053046;28;20041;-80
2023/06/24 11:56:11;;;;;;;6.05;3.85;;;28.70;49.90;;;;;;5008366;28;20051;-78
2023/06/24 11:58:38;;;;;;;5.15;4.40;;;28.80;50.70;;;;;;5030195;28;20112;-79
2023/06/24 12:01:06;;;;;;;6.20;4.65;;;28.80;50.00;;;;;;5030721;28;20038;-79
2023/06/24 12:03:33;;;;;;;6.07;4.60;;;28.90;50.80;;;;;;4990280;28;1144634;-78
2023/06/24 12:05:59;;;;;;;6.82;4.32;;;29.00;50.00;;;;;;5032246;28;20049;-78
2023/06/24 12:08:25;;;;;;;6.68;4.22;;;29.10;49.30;;;;;;5032007;28;20055;-80
2023/06/24 12:10:52;;;;;;;5.85;4.22;;;29.10;49.40;;;;;;5015571;28;20042;-78
2023/06/24 12:13:18;;;;;;;5.43;4.07;;;29.20;49.30;;;;;;5065723;28;20041;-80
2023/06/24 12:15:44;;;;;;;6.10;4.32;;;29.30;48.60;;;;;;5032550;28;20509;-78
2023/06/24 12:18:11;;;;;;;5.13;3.40;;;29.30;48.10;;;;;;5015608;28;20048;-80
2023/06/24 12:20:37;;;;;;;5.63;3.88;;;29.30;47.20;;;;;;5064443;28;20043;-79
2023/06/24 12:23:05;;;;;;;6.88;3.85;;;29.40;48.10;;;;;;5030576;28;20045;-79
2023/06/24 12:25:31;;;;;;;5.32;4.05;;;29.40;47.70;;;;;;5016370;28;20133;-79
2023/06/24 12:27:59;;;;;;;4.82;3.75;;;29.40;47.00;;;;;;5049537;28;20080;-80
2023/06/24 12:30:25;;;;;;;5.35;2.90;;;29.40;47.20;;;;;;5015441;28;20045;-79
2023/06/24 12:32:51;;;;;;;6.82;3.63;;;29.30;46.60;;;;;;5032048;28;20077;-78